sensor_id;sensor_type;location;lat;lon;timestamp;P1;durP1;ratioP1;P2;durP2;ratioP2
49458;SDS011;35354;51.296;16.924;2023-01-04T00:01:10;73.72;;;47.88;;
49458;SDS011;35354;51.296;16.924;2023-01-04T00:03:37;134.43;;;69.78;;
49458;SDS011;35354;51.296;16.924;2023-01-04T00:06:04;123.40;;;62.55;;
49458;SDS011;35354;51.296;16.924;2023-01-04T00:08:30;124.68;;;62.25;;
49458;SDS011;35354;51.296;16.924;2023-01-04T00:11:03;113.22;;;60.80;;
49458;SDS011;35354;51.296;16.924;2023-01-04T00:13:39;129.02;;;68.68;;
49458;SDS011;35354;51.296;16.924;2023-01-04T00:16:06;136.63;;;68.57;;
49458;SDS011;35354;51.296;16.924;2023-01-04T00:18:34;78.63;;;50.40;;
49458;SDS011;35354;51.296;16.924;2023-01-04T00:21:07;65.20;;;42.22;;
49458;SDS011;35354;51.296;16.924;2023-01-04T00:23:43;60.83;;;38.22;;
49458;SDS011;35354;51.296;16.924;2023-01-04T00:26:11;65.95;;;40.78;;
49458;SDS011;35354;51.296;16.924;2023-01-04T00:28:38;62.45;;;41.53;;
49458;SDS011;35354;51.296;16.924;2023-01-04T00:31:04;53.97;;;37.95;;
49458;SDS011;35354;51.296;16.924;2023-01-04T00:33:31;59.67;;;40.20;;
49458;SDS011;35354;51.296;16.924;2023-01-04T00:36:00;60.83;;;38.72;;
49458;SDS011;35354;51.296;16.924;2023-01-04T00:38:33;55.53;;;37.72;;
49458;SDS011;35354;51.296;16.924;2023-01-04T00:40:59;66.85;;;39.95;;
49458;SDS011;35354;51.296;16.924;2023-01-04T00:43:26;173.98;;;86.35;;
49458;SDS011;35354;51.296;16.924;2023-01-04T00:45:51;124.80;;;67.57;;
49458;SDS011;35354;51.296;16.924;2023-01-04T00:48:17;90.90;;;50.33;;
49458;SDS011;35354;51.296;16.924;2023-01-04T00:50:43;96.72;;;54.03;;
49458;SDS011;35354;51.296;16.924;2023-01-04T00:53:10;123.15;;;60.17;;
49458;SDS011;35354;51.296;16.924;2023-01-04T00:55:36;127.63;;;58.88;;
49458;SDS011;35354;51.296;16.924;2023-01-04T00:58:01;122.65;;;61.15;;
49458;SDS011;35354;51.296;16.924;2023-01-04T01:00:27;80.22;;;44.00;;
49458;SDS011;35354;51.296;16.924;2023-01-04T01:02:52;107.05;;;52.20;;
49458;SDS011;35354;51.296;16.924;2023-01-04T01:05:18;101.97;;;50.38;;
49458;SDS011;35354;51.296;16.924;2023-01-04T01:07:43;97.40;;;50.35;;
49458;SDS011;35354;51.296;16.924;2023-01-04T01:10:08;103.60;;;51.92;;
49458;SDS011;35354;51.296;16.924;2023-01-04T01:12:34;88.82;;;48.70;;
49458;SDS011;35354;51.296;16.924;2023-01-04T01:14:59;96.68;;;49.78;;
49458;SDS011;35354;51.296;16.924;2023-01-04T01:17:25;98.90;;;52.13;;
49458;SDS011;35354;51.296;16.924;2023-01-04T01:19:50;128.10;;;59.90;;
49458;SDS011;35354;51.296;16.924;2023-01-04T01:22:15;82.90;;;44.47;;
49458;SDS011;35354;51.296;16.924;2023-01-04T01:24:41;64.03;;;37.10;;
49458;SDS011;35354;51.296;16.924;2023-01-04T01:27:06;73.18;;;39.40;;
49458;SDS011;35354;51.296;16.924;2023-01-04T01:29:31;74.93;;;40.45;;
49458;SDS011;35354;51.296;16.924;2023-01-04T01:31:57;83.25;;;46.45;;
49458;SDS011;35354;51.296;16.924;2023-01-04T01:34:22;82.85;;;44.28;;
49458;SDS011;35354;51.296;16.924;2023-01-04T01:36:47;89.75;;;45.05;;
49458;SDS011;35354;51.296;16.924;2023-01-04T01:39:13;76.82;;;43.72;;
49458;SDS011;35354;51.296;16.924;2023-01-04T01:41:38;85.65;;;44.67;;
49458;SDS011;35354;51.296;16.924;2023-01-04T01:47:08;87.50;;;44.17;;
49458;SDS011;35354;51.296;16.924;2023-01-04T01:49:45;80.72;;;43.65;;
49458;SDS011;35354;51.296;16.924;2023-01-04T01:52:15;73.68;;;40.95;;
49458;SDS011;35354;51.296;16.924;2023-01-04T01:54:53;64.72;;;37.05;;
49458;SDS011;35354;51.296;16.924;2023-01-04T01:57:22;75.20;;;42.13;;
49458;SDS011;35354;51.296;16.924;2023-01-04T01:59:51;66.57;;;38.05;;
49458;SDS011;35354;51.296;16.924;2023-01-04T02:02:20;63.50;;;37.67;;
49458;SDS011;35354;51.296;16.924;2023-01-04T02:04:46;68.28;;;41.45;;
49458;SDS011;35354;51.296;16.924;2023-01-04T02:07:14;89.18;;;47.05;;
49458;SDS011;35354;51.296;16.924;2023-01-04T02:09:43;78.75;;;43.42;;
49458;SDS011;35354;51.296;16.924;2023-01-04T02:12:11;87.20;;;48.13;;
49458;SDS011;35354;51.296;16.924;2023-01-04T02:14:37;77.70;;;43.83;;
49458;SDS011;35354;51.296;16.924;2023-01-04T02:30:56;56.17;;;36.28;;
49458;SDS011;35354;51.296;16.924;2023-01-04T02:34:02;51.30;;;33.67;;
49458;SDS011;35354;51.296;16.924;2023-01-04T02:39:46;58.95;;;35.05;;
49458;SDS011;35354;51.296;16.924;2023-01-04T02:45:25;58.60;;;35.80;;
49458;SDS011;35354;51.296;16.924;2023-01-04T02:47:53;55.40;;;36.75;;
49458;SDS011;35354;51.296;16.924;2023-01-04T02:53:30;67.72;;;42.42;;
49458;SDS011;35354;51.296;16.924;2023-01-04T02:58:53;63.92;;;40.35;;
49458;SDS011;35354;51.296;16.924;2023-01-04T03:05:11;60.10;;;36.95;;
49458;SDS011;35354;51.296;16.924;2023-01-04T03:11:08;53.35;;;34.42;;
49458;SDS011;35354;51.296;16.924;2023-01-04T03:13:58;53.33;;;34.15;;
49458;SDS011;35354;51.296;16.924;2023-01-04T03:16:27;62.92;;;37.15;;
49458;SDS011;35354;51.296;16.924;2023-01-04T03:18:55;53.50;;;34.42;;
49458;SDS011;35354;51.296;16.924;2023-01-04T03:21:23;57.13;;;34.83;;
49458;SDS011;35354;51.296;16.924;2023-01-04T03:23:51;58.47;;;35.70;;
49458;SDS011;35354;51.296;16.924;2023-01-04T03:26:41;56.70;;;35.25;;
49458;SDS011;35354;51.296;16.924;2023-01-04T03:32:50;51.65;;;33.65;;
49458;SDS011;35354;51.296;16.924;2023-01-04T03:35:39;54.28;;;33.70;;
49458;SDS011;35354;51.296;16.924;2023-01-04T03:44:31;59.83;;;33.93;;
49458;SDS011;35354;51.296;16.924;2023-01-04T03:50:46;61.22;;;35.22;;
49458;SDS011;35354;51.296;16.924;2023-01-04T03:53:16;56.47;;;31.98;;
49458;SDS011;35354;51.296;16.924;2023-01-04T03:55:42;60.63;;;33.72;;
49458;SDS011;35354;51.296;16.924;2023-01-04T03:58:10;58.90;;;33.95;;
49458;SDS011;35354;51.296;16.924;2023-01-04T04:00:36;54.85;;;32.60;;
49458;SDS011;35354;51.296;16.924;2023-01-04T04:03:04;56.22;;;33.80;;
49458;SDS011;35354;51.296;16.924;2023-01-04T04:05:35;50.67;;;32.13;;
49458;SDS011;35354;51.296;16.924;2023-01-04T04:08:21;52.22;;;33.00;;
49458;SDS011;35354;51.296;16.924;2023-01-04T04:13:22;62.88;;;34.58;;
49458;SDS011;35354;51.296;16.924;2023-01-04T04:15:48;66.60;;;36.13;;
49458;SDS011;35354;51.296;16.924;2023-01-04T04:18:16;67.30;;;38.25;;
49458;SDS011;35354;51.296;16.924;2023-01-04T04:20:41;57.60;;;35.00;;
49458;SDS011;35354;51.296;16.924;2023-01-04T04:23:07;66.13;;;38.60;;
49458;SDS011;35354;51.296;16.924;2023-01-04T04:25:32;84.93;;;43.30;;
49458;SDS011;35354;51.296;16.924;2023-01-04T04:27:57;89.43;;;48.10;;
49458;SDS011;35354;51.296;16.924;2023-01-04T04:30:23;105.72;;;49.17;;
49458;SDS011;35354;51.296;16.924;2023-01-04T04:32:49;99.05;;;48.58;;
49458;SDS011;35354;51.296;16.924;2023-01-04T04:35:14;79.35;;;41.75;;
49458;SDS011;35354;51.296;16.924;2023-01-04T04:37:39;84.03;;;44.45;;
49458;SDS011;35354;51.296;16.924;2023-01-04T04:40:05;79.80;;;40.90;;
49458;SDS011;35354;51.296;16.924;2023-01-04T04:42:31;79.72;;;45.30;;
49458;SDS011;35354;51.296;16.924;2023-01-04T04:44:56;83.68;;;46.67;;
49458;SDS011;35354;51.296;16.924;2023-01-04T04:47:22;141.18;;;71.10;;
49458;SDS011;35354;51.296;16.924;2023-01-04T04:49:47;135.43;;;65.78;;
49458;SDS011;35354;51.296;16.924;2023-01-04T04:52:13;118.57;;;56.97;;
49458;SDS011;35354;51.296;16.924;2023-01-04T04:54:38;157.55;;;71.03;;
49458;SDS011;35354;51.296;16.924;2023-01-04T04:57:03;151.50;;;64.25;;
49458;SDS011;35354;51.296;16.924;2023-01-04T04:59:29;155.93;;;58.88;;
49458;SDS011;35354;51.296;16.924;2023-01-04T05:01:54;105.22;;;47.03;;
49458;SDS011;35354;51.296;16.924;2023-01-04T05:04:20;61.95;;;34.33;;
49458;SDS011;35354;51.296;16.924;2023-01-04T05:06:46;53.65;;;27.45;;
49458;SDS011;35354;51.296;16.924;2023-01-04T05:09:12;49.95;;;26.42;;
49458;SDS011;35354;51.296;16.924;2023-01-04T05:11:38;54.13;;;29.08;;
49458;SDS011;35354;51.296;16.924;2023-01-04T05:14:23;59.22;;;30.30;;
49458;SDS011;35354;51.296;16.924;2023-01-04T05:16:48;60.72;;;30.85;;
49458;SDS011;35354;51.296;16.924;2023-01-04T05:19:14;58.40;;;30.73;;
49458;SDS011;35354;51.296;16.924;2023-01-04T05:21:39;48.63;;;25.33;;
49458;SDS011;35354;51.296;16.924;2023-01-04T05:24:05;48.88;;;25.48;;
49458;SDS011;35354;51.296;16.924;2023-01-04T05:26:31;55.58;;;30.05;;
49458;SDS011;35354;51.296;16.924;2023-01-04T05:28:56;47.25;;;26.38;;
49458;SDS011;35354;51.296;16.924;2023-01-04T05:31:22;55.85;;;28.55;;
49458;SDS011;35354;51.296;16.924;2023-01-04T05:33:49;48.25;;;28.60;;
49458;SDS011;35354;51.296;16.924;2023-01-04T05:36:14;51.95;;;26.88;;
49458;SDS011;35354;51.296;16.924;2023-01-04T05:38:39;55.13;;;31.40;;
49458;SDS011;35354;51.296;16.924;2023-01-04T05:41:05;114.82;;;59.38;;
49458;SDS011;35354;51.296;16.924;2023-01-04T05:43:50;99.25;;;51.95;;
49458;SDS011;35354;51.296;16.924;2023-01-04T05:46:15;99.57;;;46.03;;
49458;SDS011;35354;51.296;16.924;2023-01-04T05:48:41;64.03;;;34.72;;
49458;SDS011;35354;51.296;16.924;2023-01-04T05:51:06;57.10;;;30.42;;
49458;SDS011;35354;51.296;16.924;2023-01-04T05:53:32;57.13;;;30.02;;
49458;SDS011;35354;51.296;16.924;2023-01-04T05:55:57;59.25;;;30.75;;
49458;SDS011;35354;51.296;16.924;2023-01-04T05:58:23;66.38;;;31.38;;
49458;SDS011;35354;51.296;16.924;2023-01-04T06:00:48;58.63;;;31.20;;
49458;SDS011;35354;51.296;16.924;2023-01-04T06:03:13;51.85;;;28.02;;
49458;SDS011;35354;51.296;16.924;2023-01-04T06:05:39;44.92;;;26.13;;
49458;SDS011;35354;51.296;16.924;2023-01-04T06:08:04;40.28;;;24.80;;
49458;SDS011;35354;51.296;16.924;2023-01-04T06:10:30;35.78;;;22.90;;
49458;SDS011;35354;51.296;16.924;2023-01-04T06:12:55;42.90;;;24.38;;
49458;SDS011;35354;51.296;16.924;2023-01-04T06:15:21;36.97;;;24.83;;
49458;SDS011;35354;51.296;16.924;2023-01-04T06:17:46;37.22;;;25.33;;
49458;SDS011;35354;51.296;16.924;2023-01-04T06:20:11;35.35;;;24.85;;
49458;SDS011;35354;51.296;16.924;2023-01-04T06:22:37;58.05;;;36.40;;
49458;SDS011;35354;51.296;16.924;2023-01-04T06:25:04;48.30;;;31.33;;
49458;SDS011;35354;51.296;16.924;2023-01-04T06:27:30;44.20;;;27.27;;
49458;SDS011;35354;51.296;16.924;2023-01-04T06:29:55;40.80;;;25.23;;
49458;SDS011;35354;51.296;16.924;2023-01-04T06:32:21;41.83;;;25.25;;
49458;SDS011;35354;51.296;16.924;2023-01-04T06:34:46;49.28;;;26.75;;
49458;SDS011;35354;51.296;16.924;2023-01-04T06:37:11;44.17;;;26.77;;
49458;SDS011;35354;51.296;16.924;2023-01-04T06:39:37;35.60;;;23.65;;
49458;SDS011;35354;51.296;16.924;2023-01-04T06:42:03;38.42;;;26.55;;
49458;SDS011;35354;51.296;16.924;2023-01-04T06:44:28;43.05;;;28.90;;
49458;SDS011;35354;51.296;16.924;2023-01-04T06:46:53;39.45;;;25.73;;
49458;SDS011;35354;51.296;16.924;2023-01-04T06:49:19;42.33;;;30.45;;
49458;SDS011;35354;51.296;16.924;2023-01-04T06:51:44;41.35;;;28.35;;
49458;SDS011;35354;51.296;16.924;2023-01-04T06:54:11;36.08;;;25.58;;
49458;SDS011;35354;51.296;16.924;2023-01-04T06:56:36;40.28;;;28.08;;
49458;SDS011;35354;51.296;16.924;2023-01-04T06:59:02;38.78;;;25.92;;
49458;SDS011;35354;51.296;16.924;2023-01-04T07:01:27;36.30;;;24.38;;
49458;SDS011;35354;51.296;16.924;2023-01-04T07:03:52;35.47;;;24.15;;
49458;SDS011;35354;51.296;16.924;2023-01-04T07:06:18;38.65;;;26.10;;
49458;SDS011;35354;51.296;16.924;2023-01-04T07:08:43;39.40;;;27.92;;
49458;SDS011;35354;51.296;16.924;2023-01-04T07:11:08;37.78;;;24.60;;
49458;SDS011;35354;51.296;16.924;2023-01-04T07:13:34;35.00;;;25.90;;
49458;SDS011;35354;51.296;16.924;2023-01-04T07:15:59;35.58;;;26.48;;
49458;SDS011;35354;51.296;16.924;2023-01-04T07:18:24;39.78;;;27.05;;
49458;SDS011;35354;51.296;16.924;2023-01-04T07:20:50;55.20;;;34.60;;
49458;SDS011;35354;51.296;16.924;2023-01-04T07:23:15;48.33;;;31.85;;
49458;SDS011;35354;51.296;16.924;2023-01-04T07:25:40;38.70;;;26.52;;
49458;SDS011;35354;51.296;16.924;2023-01-04T07:28:06;42.80;;;29.67;;
49458;SDS011;35354;51.296;16.924;2023-01-04T07:30:32;39.95;;;27.75;;
49458;SDS011;35354;51.296;16.924;2023-01-04T07:32:57;36.17;;;25.63;;
49458;SDS011;35354;51.296;16.924;2023-01-04T07:35:23;55.20;;;40.00;;
49458;SDS011;35354;51.296;16.924;2023-01-04T07:37:48;81.45;;;54.35;;
49458;SDS011;35354;51.296;16.924;2023-01-04T07:40:14;70.57;;;48.65;;
49458;SDS011;35354;51.296;16.924;2023-01-04T07:42:40;52.53;;;36.03;;
49458;SDS011;35354;51.296;16.924;2023-01-04T07:45:05;72.57;;;46.08;;
49458;SDS011;35354;51.296;16.924;2023-01-04T07:47:32;45.63;;;30.48;;
49458;SDS011;35354;51.296;16.924;2023-01-04T07:49:57;47.38;;;32.20;;
49458;SDS011;35354;51.296;16.924;2023-01-04T07:52:24;57.40;;;33.10;;
49458;SDS011;35354;51.296;16.924;2023-01-04T07:54:49;56.05;;;38.40;;
49458;SDS011;35354;51.296;16.924;2023-01-04T07:57:15;48.55;;;32.70;;
49458;SDS011;35354;51.296;16.924;2023-01-04T07:59:40;40.50;;;28.63;;
49458;SDS011;35354;51.296;16.924;2023-01-04T08:02:06;34.70;;;25.17;;
49458;SDS011;35354;51.296;16.924;2023-01-04T08:04:36;31.77;;;22.60;;
49458;SDS011;35354;51.296;16.924;2023-01-04T08:07:02;40.15;;;25.45;;
49458;SDS011;35354;51.296;16.924;2023-01-04T08:09:28;65.82;;;45.55;;
49458;SDS011;35354;51.296;16.924;2023-01-04T08:11:53;62.70;;;45.42;;
49458;SDS011;35354;51.296;16.924;2023-01-04T08:14:18;29.75;;;21.50;;
49458;SDS011;35354;51.296;16.924;2023-01-04T08:16:44;33.83;;;24.85;;
49458;SDS011;35354;51.296;16.924;2023-01-04T08:19:11;35.42;;;26.13;;
49458;SDS011;35354;51.296;16.924;2023-01-04T08:21:44;35.78;;;25.48;;
49458;SDS011;35354;51.296;16.924;2023-01-04T08:24:11;30.73;;;23.48;;
49458;SDS011;35354;51.296;16.924;2023-01-04T08:26:38;49.72;;;37.17;;
49458;SDS011;35354;51.296;16.924;2023-01-04T08:29:03;32.17;;;21.95;;
49458;SDS011;35354;51.296;16.924;2023-01-04T08:31:30;33.13;;;22.73;;
49458;SDS011;35354;51.296;16.924;2023-01-04T08:33:57;32.92;;;24.92;;
49458;SDS011;35354;51.296;16.924;2023-01-04T08:36:25;32.17;;;21.10;;
49458;SDS011;35354;51.296;16.924;2023-01-04T08:38:53;28.10;;;21.15;;
49458;SDS011;35354;51.296;16.924;2023-01-04T08:41:21;29.42;;;21.92;;
49458;SDS011;35354;51.296;16.924;2023-01-04T08:43:46;31.48;;;21.52;;
49458;SDS011;35354;51.296;16.924;2023-01-04T08:46:12;29.90;;;21.95;;
49458;SDS011;35354;51.296;16.924;2023-01-04T08:48:39;27.58;;;20.35;;
49458;SDS011;35354;51.296;16.924;2023-01-04T08:51:14;26.25;;;18.15;;
49458;SDS011;35354;51.296;16.924;2023-01-04T08:53:40;27.75;;;19.77;;
49458;SDS011;35354;51.296;16.924;2023-01-04T08:56:06;26.58;;;20.42;;
49458;SDS011;35354;51.296;16.924;2023-01-04T08:58:33;22.95;;;18.02;;
49458;SDS011;35354;51.296;16.924;2023-01-04T09:01:00;30.17;;;19.73;;
49458;SDS011;35354;51.296;16.924;2023-01-04T09:03:26;28.50;;;21.30;;
49458;SDS011;35354;51.296;16.924;2023-01-04T09:05:52;24.52;;;20.05;;
49458;SDS011;35354;51.296;16.924;2023-01-04T09:08:18;27.35;;;20.35;;
49458;SDS011;35354;51.296;16.924;2023-01-04T09:10:43;33.70;;;22.55;;
49458;SDS011;35354;51.296;16.924;2023-01-04T09:13:09;23.15;;;19.33;;
49458;SDS011;35354;51.296;16.924;2023-01-04T09:15:34;23.17;;;19.48;;
49458;SDS011;35354;51.296;16.924;2023-01-04T09:17:59;26.95;;;19.27;;
49458;SDS011;35354;51.296;16.924;2023-01-04T09:20:25;23.38;;;17.13;;
49458;SDS011;35354;51.296;16.924;2023-01-04T09:22:50;27.42;;;17.75;;
49458;SDS011;35354;51.296;16.924;2023-01-04T09:25:15;23.85;;;16.95;;
49458;SDS011;35354;51.296;16.924;2023-01-04T09:27:41;23.50;;;16.88;;
49458;SDS011;35354;51.296;16.924;2023-01-04T09:30:07;22.30;;;16.73;;
49458;SDS011;35354;51.296;16.924;2023-01-04T09:32:33;27.27;;;17.60;;
49458;SDS011;35354;51.296;16.924;2023-01-04T09:34:58;23.02;;;16.33;;
49458;SDS011;35354;51.296;16.924;2023-01-04T09:37:23;27.52;;;15.93;;
49458;SDS011;35354;51.296;16.924;2023-01-04T09:39:48;22.45;;;16.65;;
49458;SDS011;35354;51.296;16.924;2023-01-04T09:42:18;22.27;;;15.32;;
49458;SDS011;35354;51.296;16.924;2023-01-04T09:44:49;23.10;;;16.30;;
49458;SDS011;35354;51.296;16.924;2023-01-04T09:47:24;20.25;;;14.88;;
49458;SDS011;35354;51.296;16.924;2023-01-04T09:49:56;19.92;;;14.85;;
49458;SDS011;35354;51.296;16.924;2023-01-04T09:52:34;19.95;;;15.85;;
49458;SDS011;35354;51.296;16.924;2023-01-04T09:55:22;19.33;;;15.13;;
49458;SDS011;35354;51.296;16.924;2023-01-04T09:57:52;20.25;;;14.05;;
49458;SDS011;35354;51.296;16.924;2023-01-04T10:00:24;17.73;;;13.27;;
49458;SDS011;35354;51.296;16.924;2023-01-04T10:05:54;19.55;;;14.00;;
49458;SDS011;35354;51.296;16.924;2023-01-04T10:08:20;17.95;;;13.32;;
49458;SDS011;35354;51.296;16.924;2023-01-04T10:25:14;17.30;;;12.32;;
49458;SDS011;35354;51.296;16.924;2023-01-04T10:27:50;17.95;;;11.70;;
49458;SDS011;35354;51.296;16.924;2023-01-04T10:33:22;18.35;;;11.52;;
49458;SDS011;35354;51.296;16.924;2023-01-04T10:35:56;14.95;;;9.60;;
49458;SDS011;35354;51.296;16.924;2023-01-04T10:38:23;17.27;;;12.02;;
49458;SDS011;35354;51.296;16.924;2023-01-04T10:40:50;11.35;;;8.57;;
49458;SDS011;35354;51.296;16.924;2023-01-04T10:46:16;11.38;;;8.80;;
49458;SDS011;35354;51.296;16.924;2023-01-04T10:48:50;11.75;;;8.45;;
49458;SDS011;35354;51.296;16.924;2023-01-04T10:51:21;14.88;;;8.85;;
49458;SDS011;35354;51.296;16.924;2023-01-04T10:53:57;16.13;;;10.25;;
49458;SDS011;35354;51.296;16.924;2023-01-04T10:59:18;12.88;;;9.45;;
49458;SDS011;35354;51.296;16.924;2023-01-04T11:04:42;15.45;;;10.13;;
49458;SDS011;35354;51.296;16.924;2023-01-04T11:07:20;14.40;;;9.65;;
49458;SDS011;35354;51.296;16.924;2023-01-04T11:09:58;13.50;;;8.98;;
49458;SDS011;35354;51.296;16.924;2023-01-04T11:12:31;13.07;;;8.70;;
49458;SDS011;35354;51.296;16.924;2023-01-04T11:14:56;12.05;;;8.10;;
49458;SDS011;35354;51.296;16.924;2023-01-04T11:17:22;10.93;;;7.53;;
49458;SDS011;35354;51.296;16.924;2023-01-04T11:19:48;10.85;;;7.70;;
49458;SDS011;35354;51.296;16.924;2023-01-04T11:24:44;14.83;;;9.83;;
49458;SDS011;35354;51.296;16.924;2023-01-04T11:27:15;17.27;;;11.02;;
49458;SDS011;35354;51.296;16.924;2023-01-04T11:35:06;14.63;;;8.07;;
49458;SDS011;35354;51.296;16.924;2023-01-04T11:42:36;6.82;;;5.22;;
49458;SDS011;35354;51.296;16.924;2023-01-04T11:45:01;8.77;;;6.40;;
49458;SDS011;35354;51.296;16.924;2023-01-04T11:47:27;9.13;;;6.00;;
49458;SDS011;35354;51.296;16.924;2023-01-04T11:49:52;11.70;;;9.50;;
49458;SDS011;35354;51.296;16.924;2023-01-04T11:52:32;41.63;;;30.55;;
49458;SDS011;35354;51.296;16.924;2023-01-04T11:55:15;30.20;;;18.75;;
49458;SDS011;35354;51.296;16.924;2023-01-04T11:57:53;35.83;;;25.45;;
49458;SDS011;35354;51.296;16.924;2023-01-04T12:00:29;20.08;;;13.75;;
49458;SDS011;35354;51.296;16.924;2023-01-04T12:03:08;45.72;;;28.88;;
49458;SDS011;35354;51.296;16.924;2023-01-04T12:05:35;31.55;;;24.27;;
49458;SDS011;35354;51.296;16.924;2023-01-04T12:08:01;12.05;;;9.30;;
49458;SDS011;35354;51.296;16.924;2023-01-04T12:10:27;11.10;;;8.00;;
49458;SDS011;35354;51.296;16.924;2023-01-04T12:12:53;11.18;;;7.72;;
49458;SDS011;35354;51.296;16.924;2023-01-04T12:15:28;8.75;;;6.60;;
49458;SDS011;35354;51.296;16.924;2023-01-04T12:18:03;10.23;;;8.25;;
49458;SDS011;35354;51.296;16.924;2023-01-04T12:20:34;9.32;;;6.47;;
49458;SDS011;35354;51.296;16.924;2023-01-04T12:23:00;8.98;;;6.28;;
49458;SDS011;35354;51.296;16.924;2023-01-04T12:25:34;9.55;;;6.90;;
49458;SDS011;35354;51.296;16.924;2023-01-04T12:31:19;11.95;;;7.35;;
49458;SDS011;35354;51.296;16.924;2023-01-04T12:33:47;13.05;;;9.60;;
49458;SDS011;35354;51.296;16.924;2023-01-04T12:36:17;13.10;;;8.32;;
49458;SDS011;35354;51.296;16.924;2023-01-04T12:52:57;8.70;;;6.43;;
49458;SDS011;35354;51.296;16.924;2023-01-04T12:57:55;25.92;;;13.38;;
49458;SDS011;35354;51.296;16.924;2023-01-04T13:00:22;14.75;;;9.45;;
49458;SDS011;35354;51.296;16.924;2023-01-04T13:05:41;16.98;;;9.25;;
49458;SDS011;35354;51.296;16.924;2023-01-04T13:08:16;15.32;;;8.68;;
49458;SDS011;35354;51.296;16.924;2023-01-04T13:10:42;15.55;;;8.10;;
49458;SDS011;35354;51.296;16.924;2023-01-04T13:18:57;12.57;;;8.32;;
49458;SDS011;35354;51.296;16.924;2023-01-04T13:21:26;15.13;;;8.52;;
49458;SDS011;35354;51.296;16.924;2023-01-04T13:23:56;10.85;;;7.38;;
49458;SDS011;35354;51.296;16.924;2023-01-04T13:34:28;12.23;;;7.93;;
49458;SDS011;35354;51.296;16.924;2023-01-04T13:39:25;13.95;;;8.18;;
49458;SDS011;35354;51.296;16.924;2023-01-04T13:41:51;13.90;;;7.38;;
49458;SDS011;35354;51.296;16.924;2023-01-04T13:47:21;11.70;;;6.25;;
49458;SDS011;35354;51.296;16.924;2023-01-04T13:49:46;9.75;;;6.60;;
49458;SDS011;35354;51.296;16.924;2023-01-04T13:52:18;10.20;;;7.10;;
49458;SDS011;35354;51.296;16.924;2023-01-04T13:54:44;10.35;;;7.20;;
49458;SDS011;35354;51.296;16.924;2023-01-04T13:57:09;9.95;;;6.72;;
49458;SDS011;35354;51.296;16.924;2023-01-04T13:59:35;10.60;;;7.25;;
49458;SDS011;35354;51.296;16.924;2023-01-04T14:02:01;13.27;;;7.63;;
49458;SDS011;35354;51.296;16.924;2023-01-04T14:04:27;13.30;;;8.25;;
49458;SDS011;35354;51.296;16.924;2023-01-04T14:06:56;14.10;;;8.85;;
49458;SDS011;35354;51.296;16.924;2023-01-04T14:09:24;15.57;;;8.98;;
49458;SDS011;35354;51.296;16.924;2023-01-04T14:11:57;19.65;;;10.77;;
49458;SDS011;35354;51.296;16.924;2023-01-04T14:14:44;16.27;;;10.52;;
49458;SDS011;35354;51.296;16.924;2023-01-04T14:17:34;20.40;;;11.75;;
49458;SDS011;35354;51.296;16.924;2023-01-04T14:22:41;14.40;;;8.88;;
49458;SDS011;35354;51.296;16.924;2023-01-04T14:46:25;18.83;;;12.48;;
49458;SDS011;35354;51.296;16.924;2023-01-04T14:48:52;48.60;;;26.77;;
49458;SDS011;35354;51.296;16.924;2023-01-04T14:51:18;52.90;;;28.20;;
49458;SDS011;35354;51.296;16.924;2023-01-04T14:53:47;24.88;;;15.93;;
49458;SDS011;35354;51.296;16.924;2023-01-04T14:56:15;21.45;;;14.27;;
49458;SDS011;35354;51.296;16.924;2023-01-04T14:58:42;30.45;;;22.27;;
49458;SDS011;35354;51.296;16.924;2023-01-04T15:01:09;14.13;;;11.60;;
49458;SDS011;35354;51.296;16.924;2023-01-04T15:03:35;16.17;;;13.18;;
49458;SDS011;35354;51.296;16.924;2023-01-04T15:06:01;21.55;;;17.30;;
49458;SDS011;35354;51.296;16.924;2023-01-04T15:08:26;16.77;;;12.82;;
49458;SDS011;35354;51.296;16.924;2023-01-04T15:10:52;15.38;;;11.63;;
49458;SDS011;35354;51.296;16.924;2023-01-04T15:13:17;20.48;;;14.43;;
49458;SDS011;35354;51.296;16.924;2023-01-04T15:15:42;14.52;;;10.25;;
49458;SDS011;35354;51.296;16.924;2023-01-04T15:18:08;18.88;;;12.25;;
49458;SDS011;35354;51.296;16.924;2023-01-04T15:20:33;16.08;;;10.88;;
49458;SDS011;35354;51.296;16.924;2023-01-04T15:23:02;20.55;;;14.75;;
49458;SDS011;35354;51.296;16.924;2023-01-04T15:25:27;22.45;;;14.55;;
49458;SDS011;35354;51.296;16.924;2023-01-04T15:27:53;20.42;;;14.55;;
49458;SDS011;35354;51.296;16.924;2023-01-04T15:30:19;24.88;;;17.38;;
49458;SDS011;35354;51.296;16.924;2023-01-04T15:32:44;21.17;;;15.10;;
49458;SDS011;35354;51.296;16.924;2023-01-04T15:35:10;29.90;;;19.65;;
49458;SDS011;35354;51.296;16.924;2023-01-04T15:37:39;21.48;;;14.75;;
49458;SDS011;35354;51.296;16.924;2023-01-04T15:40:05;26.95;;;18.10;;
49458;SDS011;35354;51.296;16.924;2023-01-04T15:42:31;17.83;;;12.23;;
49458;SDS011;35354;51.296;16.924;2023-01-04T15:45:14;19.85;;;12.80;;
49458;SDS011;35354;51.296;16.924;2023-01-04T15:47:40;24.02;;;15.57;;
49458;SDS011;35354;51.296;16.924;2023-01-04T15:50:05;23.38;;;15.15;;
49458;SDS011;35354;51.296;16.924;2023-01-04T15:52:31;23.73;;;15.13;;
49458;SDS011;35354;51.296;16.924;2023-01-04T15:54:56;26.90;;;16.05;;
49458;SDS011;35354;51.296;16.924;2023-01-04T15:57:22;20.38;;;14.02;;
49458;SDS011;35354;51.296;16.924;2023-01-04T15:59:47;20.13;;;13.55;;
49458;SDS011;35354;51.296;16.924;2023-01-04T16:02:12;15.30;;;10.13;;
49458;SDS011;35354;51.296;16.924;2023-01-04T16:04:38;16.45;;;11.38;;
49458;SDS011;35354;51.296;16.924;2023-01-04T16:07:03;18.02;;;11.98;;
49458;SDS011;35354;51.296;16.924;2023-01-04T16:09:29;19.40;;;11.18;;
49458;SDS011;35354;51.296;16.924;2023-01-04T16:11:54;19.38;;;11.68;;
49458;SDS011;35354;51.296;16.924;2023-01-04T16:14:38;17.80;;;11.25;;
49458;SDS011;35354;51.296;16.924;2023-01-04T16:17:03;19.25;;;12.68;;
49458;SDS011;35354;51.296;16.924;2023-01-04T16:19:29;23.45;;;14.40;;
49458;SDS011;35354;51.296;16.924;2023-01-04T16:21:56;25.23;;;17.83;;
49458;SDS011;35354;51.296;16.924;2023-01-04T16:24:25;19.90;;;13.93;;
49458;SDS011;35354;51.296;16.924;2023-01-04T16:26:50;30.17;;;18.70;;
49458;SDS011;35354;51.296;16.924;2023-01-04T16:29:15;22.67;;;16.20;;
49458;SDS011;35354;51.296;16.924;2023-01-04T16:31:42;20.92;;;15.65;;
49458;SDS011;35354;51.296;16.924;2023-01-04T16:34:12;16.17;;;12.00;;
49458;SDS011;35354;51.296;16.924;2023-01-04T16:36:38;21.67;;;15.15;;
49458;SDS011;35354;51.296;16.924;2023-01-04T16:39:03;18.60;;;13.35;;
49458;SDS011;35354;51.296;16.924;2023-01-04T16:41:29;15.38;;;11.18;;
49458;SDS011;35354;51.296;16.924;2023-01-04T16:43:55;15.32;;;11.00;;
49458;SDS011;35354;51.296;16.924;2023-01-04T16:46:27;14.43;;;11.48;;
49458;SDS011;35354;51.296;16.924;2023-01-04T16:48:56;12.63;;;9.57;;
49458;SDS011;35354;51.296;16.924;2023-01-04T16:51:23;11.52;;;8.93;;
49458;SDS011;35354;51.296;16.924;2023-01-04T16:53:50;10.60;;;8.30;;
49458;SDS011;35354;51.296;16.924;2023-01-04T16:56:17;12.45;;;10.05;;